sensor_id;sensor_type;location;lat;lon;timestamp;temperature;humidity
49385;DHT22;36795;45.028;38.968;2023-08-20T00:02:24;29.10;38.60
49385;DHT22;36795;45.028;38.968;2023-08-20T00:05:11;29.10;38.60
49385;DHT22;36795;45.028;38.968;2023-08-20T00:07:57;29.00;38.70
49385;DHT22;36795;45.028;38.968;2023-08-20T00:10:44;28.90;38.80
49385;DHT22;36795;45.028;38.968;2023-08-20T00:13:30;28.90;38.80
49385;DHT22;36795;45.028;38.968;2023-08-20T00:16:16;28.80;38.80
49385;DHT22;36795;45.028;38.968;2023-08-20T00:19:02;28.80;38.80
49385;DHT22;36795;45.028;38.968;2023-08-20T00:21:49;28.80;39.00
49385;DHT22;36795;45.028;38.968;2023-08-20T00:24:35;28.70;38.90
49385;DHT22;36795;45.028;38.968;2023-08-20T00:27:22;28.70;39.00
49385;DHT22;36795;45.028;38.968;2023-08-20T00:30:08;28.70;39.00
49385;DHT22;36795;45.028;38.968;2023-08-20T00:32:55;28.70;39.00
49385;DHT22;36795;45.028;38.968;2023-08-20T00:35:40;28.60;39.10
49385;DHT22;36795;45.028;38.968;2023-08-20T00:38:27;28.50;39.10
49385;DHT22;36795;45.028;38.968;2023-08-20T00:41:13;28.50;39.40
49385;DHT22;36795;45.028;38.968;2023-08-20T00:43:59;28.40;39.40
49385;DHT22;36795;45.028;38.968;2023-08-20T00:46:46;28.40;39.40
49385;DHT22;36795;45.028;38.968;2023-08-20T00:49:33;28.40;40.00
49385;DHT22;36795;45.028;38.968;2023-08-20T00:52:20;28.40;39.40
49385;DHT22;36795;45.028;38.968;2023-08-20T00:55:11;28.30;39.60
49385;DHT22;36795;45.028;38.968;2023-08-20T00:57:58;28.20;39.70
49385;DHT22;36795;45.028;38.968;2023-08-20T01:00:44;28.20;39.80
49385;DHT22;36795;45.028;38.968;2023-08-20T01:03:30;28.00;39.80
49385;DHT22;36795;45.028;38.968;2023-08-20T01:06:28;28.00;39.90
49385;DHT22;36795;45.028;38.968;2023-08-20T01:12:07;27.90;39.90
49385;DHT22;36795;45.028;38.968;2023-08-20T01:14:54;27.90;39.90
49385;DHT22;36795;45.028;38.968;2023-08-20T01:17:41;27.90;39.90
49385;DHT22;36795;45.028;38.968;2023-08-20T01:20:33;27.80;40.00
49385;DHT22;36795;45.028;38.968;2023-08-20T01:23:28;27.60;40.10
49385;DHT22;36795;45.028;38.968;2023-08-20T01:29:21;27.60;40.40
49385;DHT22;36795;45.028;38.968;2023-08-20T01:32:07;27.60;40.30
49385;DHT22;36795;45.028;38.968;2023-08-20T01:34:54;27.60;40.30
49385;DHT22;36795;45.028;38.968;2023-08-20T01:37:40;27.60;40.50
49385;DHT22;36795;45.028;38.968;2023-08-20T01:40:28;27.60;40.50
49385;DHT22;36795;45.028;38.968;2023-08-20T01:43:14;27.60;40.40
49385;DHT22;36795;45.028;38.968;2023-08-20T01:46:01;27.60;40.50
49385;DHT22;36795;45.028;38.968;2023-08-20T01:48:47;27.50;40.40
49385;DHT22;36795;45.028;38.968;2023-08-20T01:51:33;27.50;40.60
49385;DHT22;36795;45.028;38.968;2023-08-20T01:54:19;27.50;40.50
49385;DHT22;36795;45.028;38.968;2023-08-20T01:57:05;27.40;40.50
49385;DHT22;36795;45.028;38.968;2023-08-20T01:59:52;27.30;40.70
49385;DHT22;36795;45.028;38.968;2023-08-20T02:02:38;27.20;40.80
49385;DHT22;36795;45.028;38.968;2023-08-20T02:05:24;27.20;41.10
49385;DHT22;36795;45.028;38.968;2023-08-20T02:08:10;27.20;41.30
49385;DHT22;36795;45.028;38.968;2023-08-20T02:11:03;27.10;41.40
49385;DHT22;36795;45.028;38.968;2023-08-20T02:13:49;27.00;41.30
49385;DHT22;36795;45.028;38.968;2023-08-20T02:16:35;26.90;41.30
49385;DHT22;36795;45.028;38.968;2023-08-20T02:19:22;26.90;41.50
49385;DHT22;36795;45.028;38.968;2023-08-20T02:22:08;26.90;41.50
49385;DHT22;36795;45.028;38.968;2023-08-20T02:24:55;26.90;41.50
49385;DHT22;36795;45.028;38.968;2023-08-20T02:27:41;27.00;41.50
49385;DHT22;36795;45.028;38.968;2023-08-20T02:30:30;27.00;41.50
49385;DHT22;36795;45.028;38.968;2023-08-20T02:33:16;27.00;41.50
49385;DHT22;36795;45.028;38.968;2023-08-20T02:36:03;27.00;41.60
49385;DHT22;36795;45.028;38.968;2023-08-20T02:38:50;26.90;41.70
49385;DHT22;36795;45.028;38.968;2023-08-20T02:41:36;26.90;41.80
49385;DHT22;36795;45.028;38.968;2023-08-20T02:44:22;26.90;41.80
49385;DHT22;36795;45.028;38.968;2023-08-20T02:47:08;26.80;41.90
49385;DHT22;36795;45.028;38.968;2023-08-20T02:49:54;26.80;41.90
49385;DHT22;36795;45.028;38.968;2023-08-20T02:52:42;26.80;42.10
49385;DHT22;36795;45.028;38.968;2023-08-20T02:55:29;26.80;42.30
49385;DHT22;36795;45.028;38.968;2023-08-20T02:58:15;26.80;42.30
49385;DHT22;36795;45.028;38.968;2023-08-20T03:01:01;26.70;42.30
49385;DHT22;36795;45.028;38.968;2023-08-20T03:03:48;26.70;42.30
49385;DHT22;36795;45.028;38.968;2023-08-20T03:06:34;26.70;42.40
49385;DHT22;36795;45.028;38.968;2023-08-20T03:09:20;26.80;42.30
49385;DHT22;36795;45.028;38.968;2023-08-20T03:12:06;26.70;42.30
49385;DHT22;36795;45.028;38.968;2023-08-20T03:14:53;26.80;42.50
49385;DHT22;36795;45.028;38.968;2023-08-20T03:17:38;26.70;42.70
49385;DHT22;36795;45.028;38.968;2023-08-20T03:20:25;26.70;42.90
49385;DHT22;36795;45.028;38.968;2023-08-20T03:23:11;26.70;43.00
49385;DHT22;36795;45.028;38.968;2023-08-20T03:25:58;26.70;43.00
49385;DHT22;36795;45.028;38.968;2023-08-20T03:28:45;26.70;43.00
49385;DHT22;36795;45.028;38.968;2023-08-20T03:31:31;26.90;43.10
49385;DHT22;36795;45.028;38.968;2023-08-20T03:34:17;27.00;42.90
49385;DHT22;36795;45.028;38.968;2023-08-20T03:37:04;27.00;42.80
49385;DHT22;36795;45.028;38.968;2023-08-20T03:39:50;27.20;42.80
49385;DHT22;36795;45.028;38.968;2023-08-20T03:42:36;27.20;42.80
49385;DHT22;36795;45.028;38.968;2023-08-20T03:45:22;27.10;42.80
49385;DHT22;36795;45.028;38.968;2023-08-20T03:48:08;27.10;42.70
49385;DHT22;36795;45.028;38.968;2023-08-20T03:50:53;27.20;42.90
49385;DHT22;36795;45.028;38.968;2023-08-20T03:53:40;27.20;42.90
49385;DHT22;36795;45.028;38.968;2023-08-20T03:56:25;27.30;42.90
49385;DHT22;36795;45.028;38.968;2023-08-20T03:59:12;27.40;42.90
49385;DHT22;36795;45.028;38.968;2023-08-20T04:01:58;27.40;43.00
49385;DHT22;36795;45.028;38.968;2023-08-20T04:04:44;27.50;43.10
49385;DHT22;36795;45.028;38.968;2023-08-20T04:07:30;27.50;43.00
49385;DHT22;36795;45.028;38.968;2023-08-20T04:10:16;27.50;43.20
49385;DHT22;36795;45.028;38.968;2023-08-20T04:13:02;27.60;43.10
49385;DHT22;36795;45.028;38.968;2023-08-20T04:15:49;27.70;43.10
49385;DHT22;36795;45.028;38.968;2023-08-20T04:18:35;27.80;42.90
49385;DHT22;36795;45.028;38.968;2023-08-20T04:21:21;27.90;42.90
49385;DHT22;36795;45.028;38.968;2023-08-20T04:24:07;27.90;42.90
49385;DHT22;36795;45.028;38.968;2023-08-20T04:26:53;28.00;42.90
49385;DHT22;36795;45.028;38.968;2023-08-20T04:29:40;28.10;42.90
49385;DHT22;36795;45.028;38.968;2023-08-20T04:32:26;28.20;42.70
49385;DHT22;36795;45.028;38.968;2023-08-20T04:35:12;28.10;42.90
49385;DHT22;36795;45.028;38.968;2023-08-20T04:37:59;28.20;42.70
49385;DHT22;36795;45.028;38.968;2023-08-20T04:40:49;28.20;42.70
49385;DHT22;36795;45.028;38.968;2023-08-20T04:43:35;28.20;42.70
49385;DHT22;36795;45.028;38.968;2023-08-20T04:46:21;28.20;42.80
49385;DHT22;36795;45.028;38.968;2023-08-20T04:49:07;28.20;42.80
49385;DHT22;36795;45.028;38.968;2023-08-20T04:51:53;28.20;42.90
49385;DHT22;36795;45.028;38.968;2023-08-20T04:54:40;28.50;42.80
49385;DHT22;36795;45.028;38.968;2023-08-20T04:57:27;28.60;42.60
49385;DHT22;36795;45.028;38.968;2023-08-20T05:00:15;28.70;42.70
49385;DHT22;36795;45.028;38.968;2023-08-20T05:03:01;28.70;42.50
49385;DHT22;36795;45.028;38.968;2023-08-20T05:05:50;28.80;42.60
49385;DHT22;36795;45.028;38.968;2023-08-20T05:08:37;28.90;42.60
49385;DHT22;36795;45.028;38.968;2023-08-20T05:11:23;29.00;42.60
49385;DHT22;36795;45.028;38.968;2023-08-20T05:14:09;29.20;42.40
49385;DHT22;36795;45.028;38.968;2023-08-20T05:16:56;29.30;42.30
49385;DHT22;36795;45.028;38.968;2023-08-20T05:19:42;29.40;42.40
49385;DHT22;36795;45.028;38.968;2023-08-20T05:22:29;29.40;42.30
49385;DHT22;36795;45.028;38.968;2023-08-20T05:25:15;29.40;42.20
49385;DHT22;36795;45.028;38.968;2023-08-20T05:28:01;29.40;42.00
49385;DHT22;36795;45.028;38.968;2023-08-20T05:30:55;29.60;41.90
49385;DHT22;36795;45.028;38.968;2023-08-20T05:33:42;29.70;41.70
49385;DHT22;36795;45.028;38.968;2023-08-20T05:36:28;29.90;41.70
49385;DHT22;36795;45.028;38.968;2023-08-20T05:39:15;30.00;41.80
49385;DHT22;36795;45.028;38.968;2023-08-20T05:42:01;30.00;41.20
49385;DHT22;36795;45.028;38.968;2023-08-20T05:44:47;30.10;41.10
49385;DHT22;36795;45.028;38.968;2023-08-20T05:47:35;30.30;41.00
49385;DHT22;36795;45.028;38.968;2023-08-20T05:50:22;30.50;40.90
49385;DHT22;36795;45.028;38.968;2023-08-20T05:53:08;30.50;40.60
49385;DHT22;36795;45.028;38.968;2023-08-20T05:55:56;30.60;40.60
49385;DHT22;36795;45.028;38.968;2023-08-20T05:58:41;30.70;40.50
49385;DHT22;36795;45.028;38.968;2023-08-20T06:01:27;30.80;39.90
49385;DHT22;36795;45.028;38.968;2023-08-20T06:04:14;30.80;39.50
49385;DHT22;36795;45.028;38.968;2023-08-20T06:06:59;30.90;39.20
49385;DHT22;36795;45.028;38.968;2023-08-20T06:09:46;31.00;38.90
49385;DHT22;36795;45.028;38.968;2023-08-20T06:12:32;31.10;38.80
49385;DHT22;36795;45.028;38.968;2023-08-20T06:15:19;31.20;38.40
49385;DHT22;36795;45.028;38.968;2023-08-20T06:18:05;31.20;38.50
49385;DHT22;36795;45.028;38.968;2023-08-20T06:20:51;31.40;38.80
49385;DHT22;36795;45.028;38.968;2023-08-20T06:23:37;31.50;38.40
49385;DHT22;36795;45.028;38.968;2023-08-20T06:26:24;31.70;38.30
49385;DHT22;36795;45.028;38.968;2023-08-20T06:29:09;31.80;38.00
49385;DHT22;36795;45.028;38.968;2023-08-20T06:31:55;31.90;37.70
49385;DHT22;36795;45.028;38.968;2023-08-20T06:34:41;31.90;37.70
49385;DHT22;36795;45.028;38.968;2023-08-20T06:37:27;32.10;37.70
49385;DHT22;36795;45.028;38.968;2023-08-20T06:40:13;32.20;37.70
49385;DHT22;36795;45.028;38.968;2023-08-20T06:43:00;32.30;37.40
49385;DHT22;36795;45.028;38.968;2023-08-20T06:45:45;32.40;37.20
49385;DHT22;36795;45.028;38.968;2023-08-20T06:48:31;32.50;37.00
49385;DHT22;36795;45.028;38.968;2023-08-20T06:51:21;32.60;36.80
49385;DHT22;36795;45.028;38.968;2023-08-20T06:54:07;32.70;36.80
49385;DHT22;36795;45.028;38.968;2023-08-20T06:56:54;32.90;36.70
49385;DHT22;36795;45.028;38.968;2023-08-20T06:59:40;33.20;36.40
49385;DHT22;36795;45.028;38.968;2023-08-20T07:02:28;33.70;36.10
49385;DHT22;36795;45.028;38.968;2023-08-20T07:05:14;34.00;35.60
49385;DHT22;36795;45.028;38.968;2023-08-20T07:08:00;34.50;35.20
49385;DHT22;36795;45.028;38.968;2023-08-20T07:10:46;35.40;34.40
49385;DHT22;36795;45.028;38.968;2023-08-20T07:13:32;36.40;33.40
49385;DHT22;36795;45.028;38.968;2023-08-20T07:16:18;37.20;32.30
49385;DHT22;36795;45.028;38.968;2023-08-20T07:19:04;38.10;31.90
49385;DHT22;36795;45.028;38.968;2023-08-20T07:21:51;38.90;31.00
49385;DHT22;36795;45.028;38.968;2023-08-20T07:24:36;39.40;30.60
49385;DHT22;36795;45.028;38.968;2023-08-20T07:27:23;40.00;30.10
49385;DHT22;36795;45.028;38.968;2023-08-20T07:30:09;40.40;29.80
49385;DHT22;36795;45.028;38.968;2023-08-20T07:32:55;40.70;29.30
49385;DHT22;36795;45.028;38.968;2023-08-20T07:35:41;41.20;29.10
49385;DHT22;36795;45.028;38.968;2023-08-20T07:38:27;41.50;28.70
49385;DHT22;36795;45.028;38.968;2023-08-20T07:41:13;41.50;28.70
49385;DHT22;36795;45.028;38.968;2023-08-20T07:43:59;41.30;28.80
49385;DHT22;36795;45.028;38.968;2023-08-20T07:46:45;40.50;29.10
49385;DHT22;36795;45.028;38.968;2023-08-20T07:49:31;39.40;29.80
49385;DHT22;36795;45.028;38.968;2023-08-20T07:52:17;38.50;30.00
49385;DHT22;36795;45.028;38.968;2023-08-20T07:55:03;38.10;30.00
49385;DHT22;36795;45.028;38.968;2023-08-20T07:57:49;38.20;30.10
49385;DHT22;36795;45.028;38.968;2023-08-20T08:00:37;38.50;29.90
49385;DHT22;36795;45.028;38.968;2023-08-20T08:03:27;38.40;29.90
49385;DHT22;36795;45.028;38.968;2023-08-20T08:06:13;38.60;29.90
49385;DHT22;36795;45.028;38.968;2023-08-20T08:09:18;38.90;29.60
49385;DHT22;36795;45.028;38.968;2023-08-20T08:12:05;39.50;29.40
49385;DHT22;36795;45.028;38.968;2023-08-20T08:14:52;39.80;29.20
49385;DHT22;36795;45.028;38.968;2023-08-20T08:17:37;39.40;29.30
49385;DHT22;36795;45.028;38.968;2023-08-20T08:20:23;38.90;29.70
49385;DHT22;36795;45.028;38.968;2023-08-20T08:23:10;38.70;30.00
49385;DHT22;36795;45.028;38.968;2023-08-20T08:25:56;39.00;30.00
49385;DHT22;36795;45.028;38.968;2023-08-20T08:28:42;39.70;29.80
49385;DHT22;36795;45.028;38.968;2023-08-20T08:31:29;40.50;29.00
49385;DHT22;36795;45.028;38.968;2023-08-20T08:34:15;40.80;28.70
49385;DHT22;36795;45.028;38.968;2023-08-20T08:37:01;40.80;28.80
49385;DHT22;36795;45.028;38.968;2023-08-20T08:39:47;40.40;28.90
49385;DHT22;36795;45.028;38.968;2023-08-20T08:42:34;39.70;29.20
49385;DHT22;36795;45.028;38.968;2023-08-20T08:45:20;39.40;29.60
49385;DHT22;36795;45.028;38.968;2023-08-20T08:48:07;39.50;29.60
49385;DHT22;36795;45.028;38.968;2023-08-20T08:50:53;39.20;29.40
49385;DHT22;36795;45.028;38.968;2023-08-20T08:53:44;38.60;29.60
49385;DHT22;36795;45.028;38.968;2023-08-20T08:56:30;38.10;30.00
49385;DHT22;36795;45.028;38.968;2023-08-20T08:59:16;37.70;30.00
49385;DHT22;36795;45.028;38.968;2023-08-20T09:02:11;37.70;30.10
49385;DHT22;36795;45.028;38.968;2023-08-20T09:04:58;37.80;30.00
49385;DHT22;36795;45.028;38.968;2023-08-20T09:07:44;38.10;29.60
49385;DHT22;36795;45.028;38.968;2023-08-20T09:10:31;38.30;29.70
49385;DHT22;36795;45.028;38.968;2023-08-20T09:13:17;38.20;29.60
49385;DHT22;36795;45.028;38.968;2023-08-20T09:16:04;38.00;29.60
49385;DHT22;36795;45.028;38.968;2023-08-20T09:18:51;38.00;29.30
49385;DHT22;36795;45.028;38.968;2023-08-20T09:21:37;38.10;29.30
49385;DHT22;36795;45.028;38.968;2023-08-20T09:24:39;38.50;29.10
49385;DHT22;36795;45.028;38.968;2023-08-20T09:27:25;39.10;28.90
49385;DHT22;36795;45.028;38.968;2023-08-20T09:30:18;39.50;28.30
49385;DHT22;36795;45.028;38.968;2023-08-20T09:33:13;39.70;28.00
49385;DHT22;36795;45.028;38.968;2023-08-20T09:36:03;39.40;28.20
49385;DHT22;36795;45.028;38.968;2023-08-20T09:38:51;39.30;28.30
49385;DHT22;36795;45.028;38.968;2023-08-20T09:41:37;39.40;28.30
49385;DHT22;36795;45.028;38.968;2023-08-20T09:44:25;39.50;28.10
49385;DHT22;36795;45.028;38.968;2023-08-20T09:47:12;39.80;27.90
49385;DHT22;36795;45.028;38.968;2023-08-20T09:50:00;39.60;28.10
49385;DHT22;36795;45.028;38.968;2023-08-20T09:53:21;39.20;28.10
49385;DHT22;36795;45.028;38.968;2023-08-20T09:56:27;38.90;28.50
49385;DHT22;36795;45.028;38.968;2023-08-20T09:59:14;38.60;28.60
49385;DHT22;36795;45.028;38.968;2023-08-20T10:02:03;38.30;28.70
49385;DHT22;36795;45.028;38.968;2023-08-20T10:04:49;38.10;28.90
49385;DHT22;36795;45.028;38.968;2023-08-20T10:07:36;38.00;29.10
49385;DHT22;36795;45.028;38.968;2023-08-20T10:10:23;38.00;29.20
49385;DHT22;36795;45.028;38.968;2023-08-20T10:13:09;37.90;29.10
49385;DHT22;36795;45.028;38.968;2023-08-20T10:15:56;37.80;29.20
49385;DHT22;36795;45.028;38.968;2023-08-20T10:18:42;37.70;29.40
49385;DHT22;36795;45.028;38.968;2023-08-20T10:21:29;37.60;29.40
49385;DHT22;36795;45.028;38.968;2023-08-20T10:24:18;37.40;29.40
49385;DHT22;36795;45.028;38.968;2023-08-20T10:27:11;37.40;29.70
49385;DHT22;36795;45.028;38.968;2023-08-20T10:29:59;37.50;29.40
49385;DHT22;36795;45.028;38.968;2023-08-20T10:32:50;37.50;29.20
49385;DHT22;36795;45.028;38.968;2023-08-20T10:38:27;37.60;28.20
49385;DHT22;36795;45.028;38.968;2023-08-20T10:41:27;37.70;28.10
49385;DHT22;36795;45.028;38.968;2023-08-20T10:44:14;37.70;27.90
49385;DHT22;36795;45.028;38.968;2023-08-20T10:47:00;37.70;27.70
49385;DHT22;36795;45.028;38.968;2023-08-20T10:49:53;37.70;27.80
49385;DHT22;36795;45.028;38.968;2023-08-20T10:52:54;37.90;27.60
49385;DHT22;36795;45.028;38.968;2023-08-20T10:55:48;37.90;27.60
49385;DHT22;36795;45.028;38.968;2023-08-20T10:58:34;38.00;27.30
49385;DHT22;36795;45.028;38.968;2023-08-20T11:01:23;38.20;26.90
49385;DHT22;36795;45.028;38.968;2023-08-20T11:04:10;38.40;26.20
49385;DHT22;36795;45.028;38.968;2023-08-20T11:06:57;38.40;26.20
49385;DHT22;36795;45.028;38.968;2023-08-20T11:09:43;38.20;26.40
49385;DHT22;36795;45.028;38.968;2023-08-20T11:12:32;38.10;26.60
49385;DHT22;36795;45.028;38.968;2023-08-20T11:15:18;38.00;27.30
49385;DHT22;36795;45.028;38.968;2023-08-20T11:18:04;38.00;27.10
49385;DHT22;36795;45.028;38.968;2023-08-20T11:20:51;38.00;26.50
49385;DHT22;36795;45.028;38.968;2023-08-20T11:23:39;38.10;26.90
49385;DHT22;36795;45.028;38.968;2023-08-20T11:26:27;38.20;26.80
49385;DHT22;36795;45.028;38.968;2023-08-20T11:29:15;38.20;27.00
49385;DHT22;36795;45.028;38.968;2023-08-20T11:32:05;38.20;26.90
49385;DHT22;36795;45.028;38.968;2023-08-20T11:34:52;38.20;27.00
49385;DHT22;36795;45.028;38.968;2023-08-20T11:37:38;38.40;26.90
49385;DHT22;36795;45.028;38.968;2023-08-20T11:40:25;38.80;26.50
49385;DHT22;36795;45.028;38.968;2023-08-20T11:43:11;38.90;26.00
49385;DHT22;36795;45.028;38.968;2023-08-20T11:45:57;38.80;26.00
49385;DHT22;36795;45.028;38.968;2023-08-20T11:49:06;38.70;26.20
49385;DHT22;36795;45.028;38.968;2023-08-20T11:51:52;38.90;26.30
49385;DHT22;36795;45.028;38.968;2023-08-20T11:54:38;38.80;26.00
49385;DHT22;36795;45.028;38.968;2023-08-20T11:57:24;38.90;26.10
49385;DHT22;36795;45.028;38.968;2023-08-20T12:00:24;38.90;26.00
49385;DHT22;36795;45.028;38.968;2023-08-20T12:03:10;39.10;26.30
49385;DHT22;36795;45.028;38.968;2023-08-20T12:05:56;39.60;26.00
49385;DHT22;36795;45.028;38.968;2023-08-20T12:08:42;40.00;25.70
49385;DHT22;36795;45.028;38.968;2023-08-20T12:11:28;40.10;25.40
49385;DHT22;36795;45.028;38.968;2023-08-20T12:14:14;40.10;25.60
49385;DHT22;36795;45.028;38.968;2023-08-20T12:17:01;40.30;25.60
49385;DHT22;36795;45.028;38.968;2023-08-20T12:19:48;40.30;25.90
49385;DHT22;36795;45.028;38.968;2023-08-20T12:22:34;40.20;25.90
49385;DHT22;36795;45.028;38.968;2023-08-20T12:25:20;39.90;25.90
49385;DHT22;36795;45.028;38.968;2023-08-20T12:28:06;39.80;25.80
49385;DHT22;36795;45.028;38.968;2023-08-20T12:30:53;39.90;25.60
49385;DHT22;36795;45.028;38.968;2023-08-20T12:33:40;40.30;25.60
49385;DHT22;36795;45.028;38.968;2023-08-20T12:36:25;40.50;25.30
49385;DHT22;36795;45.028;38.968;2023-08-20T12:39:12;40.20;25.30
49385;DHT22;36795;45.028;38.968;2023-08-20T12:41:58;39.90;25.30
49385;DHT22;36795;45.028;38.968;2023-08-20T12:44:45;39.50;25.30
49385;DHT22;36795;45.028;38.968;2023-08-20T12:47:31;39.30;25.70
49385;DHT22;36795;45.028;38.968;2023-08-20T12:50:17;39.00;25.70
49385;DHT22;36795;45.028;38.968;2023-08-20T12:53:03;38.70;25.80
49385;DHT22;36795;45.028;38.968;2023-08-20T12:55:50;38.70;26.20
49385;DHT22;36795;45.028;38.968;2023-08-20T12:58:35;38.70;26.30
49385;DHT22;36795;45.028;38.968;2023-08-20T13:01:22;38.70;26.40
49385;DHT22;36795;45.028;38.968;2023-08-20T13:04:08;38.80;26.20
49385;DHT22;36795;45.028;38.968;2023-08-20T13:06:55;38.90;25.90
49385;DHT22;36795;45.028;38.968;2023-08-20T13:09:41;38.90;25.80
49385;DHT22;36795;45.028;38.968;2023-08-20T13:12:29;38.80;25.60
49385;DHT22;36795;45.028;38.968;2023-08-20T13:15:18;38.70;25.70
49385;DHT22;36795;45.028;38.968;2023-08-20T13:18:06;38.60;25.70
49385;DHT22;36795;45.028;38.968;2023-08-20T13:20:53;38.60;25.80
49385;DHT22;36795;45.028;38.968;2023-08-20T13:23:40;38.60;25.80
49385;DHT22;36795;45.028;38.968;2023-08-20T13:26:26;38.60;25.60
49385;DHT22;36795;45.028;38.968;2023-08-20T13:29:12;38.80;25.50
49385;DHT22;36795;45.028;38.968;2023-08-20T13:31:58;38.90;25.20
49385;DHT22;36795;45.028;38.968;2023-08-20T13:34:44;39.10;25.20
49385;DHT22;36795;45.028;38.968;2023-08-20T13:37:30;39.10;25.40
49385;DHT22;36795;45.028;38.968;2023-08-20T13:40:17;39.00;25.60
49385;DHT22;36795;45.028;38.968;2023-08-20T13:43:03;38.70;25.50
49385;DHT22;36795;45.028;38.968;2023-08-20T13:45:49;38.70;25.50
49385;DHT22;36795;45.028;38.968;2023-08-20T13:48:35;38.70;25.50
49385;DHT22;36795;45.028;38.968;2023-08-20T13:51:21;38.90;25.80
49385;DHT22;36795;45.028;38.968;2023-08-20T13:54:07;39.20;25.40
49385;DHT22;36795;45.028;38.968;2023-08-20T13:56:53;39.40;25.50
49385;DHT22;36795;45.028;38.968;2023-08-20T13:59:39;39.80;25.10
49385;DHT22;36795;45.028;38.968;2023-08-20T14:02:25;40.40;24.80
49385;DHT22;36795;45.028;38.968;2023-08-20T14:05:12;41.10;24.80
49385;DHT22;36795;45.028;38.968;2023-08-20T14:07:58;42.00;24.10
49385;DHT22;36795;45.028;38.968;2023-08-20T14:10:44;42.80;24.00
49385;DHT22;36795;45.028;38.968;2023-08-20T14:13:30;43.40;24.00
49385;DHT22;36795;45.028;38.968;2023-08-20T14:16:16;43.80;23.60
49385;DHT22;36795;45.028;38.968;2023-08-20T14:19:02;43.80;23.60
49385;DHT22;36795;45.028;38.968;2023-08-20T14:21:48;44.10;23.60
49385;DHT22;36795;45.028;38.968;2023-08-20T14:24:34;44.20;23.50
49385;DHT22;36795;45.028;38.968;2023-08-20T14:27:20;44.00;23.60
49385;DHT22;36795;45.028;38.968;2023-08-20T14:30:08;43.70;23.80
49385;DHT22;36795;45.028;38.968;2023-08-20T14:32:56;43.60;23.80
49385;DHT22;36795;45.028;38.968;2023-08-20T14:35:42;43.50;23.90
49385;DHT22;36795;45.028;38.968;2023-08-20T14:38:29;43.40;23.90
49385;DHT22;36795;45.028;38.968;2023-08-20T14:41:15;43.10;24.00
49385;DHT22;36795;45.028;38.968;2023-08-20T14:44:02;42.50;24.00
49385;DHT22;36795;45.028;38.968;2023-08-20T14:46:48;41.60;24.40
49385;DHT22;36795;45.028;38.968;2023-08-20T14:49:34;40.70;24.70
49385;DHT22;36795;45.028;38.968;2023-08-20T14:52:20;40.30;24.90
49385;DHT22;36795;45.028;38.968;2023-08-20T14:55:07;40.40;24.90
49385;DHT22;36795;45.028;38.968;2023-08-20T14:57:54;40.60;25.00
49385;DHT22;36795;45.028;38.968;2023-08-20T15:00:41;40.80;25.10
49385;DHT22;36795;45.028;38.968;2023-08-20T15:03:26;40.70;25.00
49385;DHT22;36795;45.028;38.968;2023-08-20T15:06:12;40.20;25.80
49385;DHT22;36795;45.028;38.968;2023-08-20T15:08:59;39.60;25.50
49385;DHT22;36795;45.028;38.968;2023-08-20T15:11:46;39.30;25.70
49385;DHT22;36795;45.028;38.968;2023-08-20T15:14:32;39.50;25.70
49385;DHT22;36795;45.028;38.968;2023-08-20T15:17:19;39.60;25.70
49385;DHT22;36795;45.028;38.968;2023-08-20T15:20:05;39.60;25.90
49385;DHT22;36795;45.028;38.968;2023-08-20T15:22:53;39.40;26.00
49385;DHT22;36795;45.028;38.968;2023-08-20T15:25:39;39.20;26.10
49385;DHT22;36795;45.028;38.968;2023-08-20T15:28:26;38.90;26.30
49385;DHT22;36795;45.028;38.968;2023-08-20T15:31:13;38.70;26.50
49385;DHT22;36795;45.028;38.968;2023-08-20T15:33:59;38.40;26.50
49385;DHT22;36795;45.028;38.968;2023-08-20T15:36:45;38.10;26.80
49385;DHT22;36795;45.028;38.968;2023-08-20T15:39:32;37.70;26.90
49385;DHT22;36795;45.028;38.968;2023-08-20T15:42:21;37.40;27.30
49385;DHT22;36795;45.028;38.968;2023-08-20T15:45:08;37.20;27.50
49385;DHT22;36795;45.028;38.968;2023-08-20T15:47:53;37.00;27.80
49385;DHT22;36795;45.028;38.968;2023-08-20T15:50:40;36.80;28.00
49385;DHT22;36795;45.028;38.968;2023-08-20T15:53:26;36.70;28.10
49385;DHT22;36795;45.028;38.968;2023-08-20T15:56:13;36.40;28.00
49385;DHT22;36795;45.028;38.968;2023-08-20T15:58:58;36.30;28.10
49385;DHT22;36795;45.028;38.968;2023-08-20T16:01:45;36.20;28.50
49385;DHT22;36795;45.028;38.968;2023-08-20T16:04:33;36.10;28.70
49385;DHT22;36795;45.028;38.968;2023-08-20T16:07:19;36.00;28.60
49385;DHT22;36795;45.028;38.968;2023-08-20T16:10:06;35.90;28.60
49385;DHT22;36795;45.028;38.968;2023-08-20T16:12:53;35.80;28.60
49385;DHT22;36795;45.028;38.968;2023-08-20T16:15:39;35.70;28.80
49385;DHT22;36795;45.028;38.968;2023-08-20T16:18:25;35.70;28.80
49385;DHT22;36795;45.028;38.968;2023-08-20T16:21:12;35.60;28.70
49385;DHT22;36795;45.028;38.968;2023-08-20T16:23:58;35.50;28.80
49385;DHT22;36795;45.028;38.968;2023-08-20T16:26:44;35.40;28.90
49385;DHT22;36795;45.028;38.968;2023-08-20T16:29:30;35.40;28.90
49385;DHT22;36795;45.028;38.968;2023-08-20T16:32:16;35.30;28.90
49385;DHT22;36795;45.028;38.968;2023-08-20T16:35:03;35.30;29.00
49385;DHT22;36795;45.028;38.968;2023-08-20T16:37:49;35.20;28.80
49385;DHT22;36795;45.028;38.968;2023-08-20T16:40:35;35.10;28.90
49385;DHT22;36795;45.028;38.968;2023-08-20T16:43:21;35.10;29.00
49385;DHT22;36795;45.028;38.968;2023-08-20T16:46:07;35.00;29.10
49385;DHT22;36795;45.028;38.968;2023-08-20T16:48:55;35.00;29.10
49385;DHT22;36795;45.028;38.968;2023-08-20T16:51:40;35.00;29.10
49385;DHT22;36795;45.028;38.968;2023-08-20T16:54:26;34.80;29.00
49385;DHT22;36795;45.028;38.968;2023-08-20T16:57:12;34.80;29.50
49385;DHT22;36795;45.028;38.968;2023-08-20T16:59:58;34.80;29.10
49385;DHT22;36795;45.028;38.968;2023-08-20T17:02:44;34.70;29.10
49385;DHT22;36795;45.028;38.968;2023-08-20T17:05:30;34.70;29.10
49385;DHT22;36795;45.028;38.968;2023-08-20T17:08:16;34.60;29.10
49385;DHT22;36795;45.028;38.968;2023-08-20T17:11:10;34.60;29.20
49385;DHT22;36795;45.028;38.968;2023-08-20T17:13:55;34.60;29.30
49385;DHT22;36795;45.028;38.968;2023-08-20T17:16:43;34.50;29.30
49385;DHT22;36795;45.028;38.968;2023-08-20T17:19:29;34.40;29.40
49385;DHT22;36795;45.028;38.968;2023-08-20T17:22:15;34.40;29.40
49385;DHT22;36795;45.028;38.968;2023-08-20T17:25:01;34.40;29.60
49385;DHT22;36795;45.028;38.968;2023-08-20T17:27:47;34.40;29.50